Larroque, Argentina
Current Conditions -  °F | °C
As of 2:00 PM on Tuesday 21 Oct 2014 (Local Time) from SADF Reporting Station
Clear Clear  
Wind Chill: 81°   Ceiling: Unl
Heat Index: 81°   Visibility: 6mi
Dew Point: 57°   Wind: 9mph
Humidity: 45%   Direction: 320°NW
Pressure: 30.06"   Gusts: NA
Location:  33.03°S, 59.02°W
Report Text: SADF 211700Z 32008KT 250V020 CAVOK 27/14 Q1018
Loading
Personal Weather Stations






























Interactive Weather Map
Tropical Storm Tracking
New forecast layout! Learn more

10-Day Weather Forecast

Advertisements
Track Severe Weather on mobile